»·PEaware :: N54073 KAMA-KABQ

N54073 :: KAMA-KABQ

FLIGHT INFORMATION

Flight Status: Arrived
Operator: Privately registered:
United States
More flights under this callsign
Pilot: Anonymous 27411 (27411)
Aircraft: BEECH AIRCRAFT BARON
(BE58)
More flights by this aircraft type
Origin: KAMA Amarillo Intl
United States
Destination: KABQ Albuquerque Intl Sunport
United States
More flights between these airports :: More routes between these airports
Route: PNH V12 ABQ
File this flight plan on PilotEdge
Remarks: thank you!
Altitude:
(Current/Filed)
11,000ft
Speed:
(Current/Filed)
175kts
Departed: 21-Dec-21 03:14 PM
Arrived: 21-Dec-21 05:06 PM
Distance/Time
Traveled:
241nm/1:52
Distance/Time
To Go:
Arrived

Flight Plot

Page will automatically refresh every two minutes.

Flight plan parsing failed; only flown route is shown


Map Options




Map Legend


Flown Route
Filed Route
Departure Airport
Arrival Airport
Navaid (VOR, NDB)
Fix

Horizontal Profiles

Position Reports

Time Latitude Longitude Heading Altitude Ground
Speed
21-Dec-21 14:52 35.213520 -101.715468 47 3610ft 0kts
21-Dec-21 14:53 35.213520 -101.715468 47 3610ft 0kts
21-Dec-21 14:54 35.213520 -101.715468 47 3610ft 0kts
21-Dec-21 14:55 35.213520 -101.715468 47 3610ft 0kts
21-Dec-21 14:56 35.213520 -101.715468 47 3610ft 0kts
21-Dec-21 14:57 35.213520 -101.715468 47 3610ft 0kts
21-Dec-21 14:58 35.213520 -101.715468 47 3610ft 0kts
21-Dec-21 14:59 35.213950 -101.714998 10 3610ft 7kts
21-Dec-21 15:00 35.213323 -101.717120 223 3610ft 17kts
21-Dec-21 15:01 35.209625 -101.721748 225 3610ft 20kts
21-Dec-21 15:03 35.207005 -101.725070 225 3610ft 17kts
21-Dec-21 15:04 35.203824 -101.729084 226 3610ft 16kts
21-Dec-21 15:05 35.203238 -101.730129 14 3610ft 0kts
21-Dec-21 15:06 35.203238 -101.730129 14 3610ft 0kts
21-Dec-21 15:07 35.203238 -101.730129 14 3610ft 0kts
21-Dec-21 15:08 35.203238 -101.730129 14 3610ft 0kts
21-Dec-21 15:09 35.203238 -101.730129 14 3610ft 0kts
21-Dec-21 15:10 35.203238 -101.730129 14 3610ft 0kts
21-Dec-21 15:11 35.203390 -101.730238 301 3610ft 7kts
21-Dec-21 15:12 35.204529 -101.731720 316 3610ft 0kts
21-Dec-21 15:13 35.204780 -101.732006 316 3610ft 15kts
21-Dec-21 15:14 35.216029 -101.717674 47 3814ft 113kts
21-Dec-21 15:15 35.237808 -101.688549 41 5103ft 113kts
21-Dec-21 15:16 35.260616 -101.658545 47 6223ft 122kts
21-Dec-21 15:17 35.283592 -101.630759 5 7473ft 107kts
21-Dec-21 15:18 35.301796 -101.656877 292 8417ft 121kts
21-Dec-21 15:19 35.301498 -101.697876 259 9431ft 129kts
21-Dec-21 15:20 35.294529 -101.740419 270 10426ft 125kts
21-Dec-21 15:21 35.288484 -101.783558 264 11271ft 133kts
21-Dec-21 15:22 35.285211 -101.828096 266 11944ft 144kts
21-Dec-21 15:23 35.278242 -101.880326 260 11927ft 175kts
21-Dec-21 15:24 35.269329 -101.937728 273 12024ft 168kts
21-Dec-21 15:25 35.261712 -101.996256 266 12040ft 171kts
21-Dec-21 15:26 35.256670 -102.054974 268 11995ft 173kts
21-Dec-21 15:26 35.252644 -102.103192 263 12009ft 175kts
21-Dec-21 15:28 35.239300 -102.170155 263 12069ft 173kts
21-Dec-21 15:29 35.232111 -102.228110 272 12095ft 170kts
21-Dec-21 15:30 35.228259 -102.286598 265 12052ft 173kts
21-Dec-21 15:30 35.218536 -102.334627 265 12077ft 172kts
21-Dec-21 15:31 35.217194 -102.393434 284 12007ft 169kts
21-Dec-21 15:33 35.213664 -102.460117 263 12044ft 175kts
21-Dec-21 15:34 35.216322 -102.517020 266 12002ft 175kts
21-Dec-21 15:34 35.213315 -102.564893 284 12147ft 162kts
21-Dec-21 15:35 35.211825 -102.622220 264 12000ft 175kts
21-Dec-21 15:36 35.204696 -102.680470 274 11949ft 173kts
21-Dec-21 15:37 35.210343 -102.736409 269 12053ft 170kts
21-Dec-21 15:38 35.205315 -102.794691 268 12045ft 169kts
21-Dec-21 15:39 35.211902 -102.850470 289 12019ft 165kts
21-Dec-21 15:40 35.204261 -102.895101 257 12034ft 175kts
21-Dec-21 15:41 35.195922 -102.963771 271 12109ft 169kts
21-Dec-21 15:42 35.201937 -103.019518 284 12136ft 164kts
21-Dec-21 15:43 35.199953 -103.071626 270 11977ft 174kts
21-Dec-21 15:44 35.195009 -103.134340 271 11993ft 172kts
21-Dec-21 15:45 35.191294 -103.191554 279 12029ft 163kts
21-Dec-21 15:46 35.194708 -103.246590 269 11976ft 169kts
21-Dec-21 15:47 35.190089 -103.303392 270 11958ft 165kts
21-Dec-21 15:48 35.188725 -103.358555 271 12033ft 162kts
21-Dec-21 15:49 35.183665 -103.413565 270 11976ft 168kts
21-Dec-21 15:50 35.181764 -103.469769 272 12044ft 161kts
21-Dec-21 15:51 35.178862 -103.524923 274 12037ft 163kts
21-Dec-21 15:52 35.180494 -103.580576 271 11963ft 165kts
21-Dec-21 15:53 35.174666 -103.635943 267 11991ft 167kts
21-Dec-21 15:54 35.172495 -103.692542 277 11961ft 162kts
21-Dec-21 15:55 35.172418 -103.748551 271 11866ft 168kts
21-Dec-21 15:56 35.167061 -103.803115 265 12094ft 161kts
21-Dec-21 15:57 35.160473 -103.857627 268 12085ft 165kts
21-Dec-21 15:58 35.162117 -103.912524 271 12168ft 160kts
21-Dec-21 15:59 35.160927 -103.968616 279 12036ft 163kts
21-Dec-21 16:00 35.159598 -104.024751 279 12095ft 158kts
21-Dec-21 16:01 35.156098 -104.080339 267 12005ft 167kts
21-Dec-21 16:02 35.157463 -104.135098 270 12079ft 163kts
21-Dec-21 16:03 35.148571 -104.190338 274 11985ft 168kts
21-Dec-21 16:04 35.146995 -104.246636 277 11959ft 167kts
21-Dec-21 16:05 35.148718 -104.302058 270 12010ft 165kts
21-Dec-21 16:06 35.143909 -104.358391 271 11865ft 171kts
21-Dec-21 16:07 35.140511 -104.413734 275 12016ft 162kts
21-Dec-21 16:08 35.140311 -104.468092 269 12000ft 169kts
21-Dec-21 16:09 35.132408 -104.524348 268 11906ft 173kts
21-Dec-21 16:10 35.135123 -104.579836 278 12019ft 160kts
21-Dec-21 16:11 35.130784 -104.635995 267 11949ft 165kts
21-Dec-21 16:12 35.125612 -104.691931 271 11945ft 164kts
21-Dec-21 16:13 35.123887 -104.747320 282 11949ft 163kts
21-Dec-21 16:14 35.123021 -104.802734 264 11942ft 168kts
21-Dec-21 16:15 35.117407 -104.858597 263 12008ft 165kts
21-Dec-21 16:16 35.105832 -104.913660 258 12012ft 168kts
21-Dec-21 16:17 35.099221 -104.968627 278 12028ft 163kts
21-Dec-21 16:18 35.101476 -105.023909 275 11950ft 169kts
21-Dec-21 16:19 35.107509 -105.078654 273 12171ft 154kts
21-Dec-21 16:20 35.105655 -105.133843 270 12080ft 163kts
21-Dec-21 16:21 35.104026 -105.189375 276 12113ft 161kts
21-Dec-21 16:22 35.094301 -105.242975 263 12008ft 174kts
21-Dec-21 16:23 35.095606 -105.299009 270 12116ft 163kts
21-Dec-21 16:24 35.094608 -105.355145 277 12101ft 159kts
21-Dec-21 16:25 35.093204 -105.409922 271 11901ft 169kts
21-Dec-21 16:26 35.095037 -105.463917 277 12219ft 152kts
21-Dec-21 16:27 35.094744 -105.518728 275 11851ft 161kts
21-Dec-21 16:28 35.088320 -105.571290 266 11871ft 155kts
21-Dec-21 16:29 35.087068 -105.622040 268 12002ft 146kts
21-Dec-21 16:30 35.083576 -105.673164 269 11905ft 152kts
21-Dec-21 16:31 35.079658 -105.724122 268 11963ft 151kts
21-Dec-21 16:32 35.075529 -105.775098 269 11970ft 151kts
21-Dec-21 16:33 35.075216 -105.826444 274 11954ft 150kts
21-Dec-21 16:34 35.075445 -105.878166 274 11900ft 152kts
21-Dec-21 16:35 35.075493 -105.928225 277 12099ft 142kts
21-Dec-21 16:36 35.069407 -105.977794 256 12065ft 153kts
21-Dec-21 16:37 35.066228 -106.028350 278 11994ft 154kts
21-Dec-21 16:38 35.066006 -106.080812 269 11929ft 154kts
21-Dec-21 16:39 35.064772 -106.131909 272 12013ft 148kts
21-Dec-21 16:40 35.062629 -106.182620 267 11957ft 155kts
21-Dec-21 16:41 35.060462 -106.234360 269 11914ft 155kts
21-Dec-21 16:42 35.059958 -106.286069 269 11893ft 153kts
21-Dec-21 16:43 35.057427 -106.336729 271 11995ft 149kts
21-Dec-21 16:44 35.058888 -106.387153 278 12037ft 146kts
21-Dec-21 16:45 35.057202 -106.436563 254 12041ft 154kts
21-Dec-21 16:46 35.050282 -106.487201 279 12048ft 148kts
21-Dec-21 16:47 35.055847 -106.537114 276 11523ft 149kts
21-Dec-21 16:48 35.051202 -106.589137 272 10657ft 152kts
21-Dec-21 16:49 35.049209 -106.642650 269 10120ft 163kts
21-Dec-21 16:50 35.045803 -106.700436 268 10002ft 171kts
21-Dec-21 16:51 35.046685 -106.757758 266 10132ft 168kts
21-Dec-21 16:52 35.027175 -106.807514 209 9657ft 192kts
21-Dec-21 16:53 34.974076 -106.812164 178 8550ft 197kts
21-Dec-21 16:54 34.921098 -106.804602 178 8043ft 188kts
21-Dec-21 16:55 34.870872 -106.811697 216 8142ft 175kts
21-Dec-21 16:56 34.833922 -106.851286 226 8104ft 175kts
21-Dec-21 16:57 34.797329 -106.831199 91 8088ft 197kts
21-Dec-21 16:58 34.835189 -106.796771 2 8004ft 184kts
21-Dec-21 16:59 34.884567 -106.786628 359 7991ft 182kts
21-Dec-21 17:00 34.917300 -106.754386 43 7710ft 140kts
21-Dec-21 17:01 34.943825 -106.721539 38 7188ft 117kts
21-Dec-21 17:02 34.970220 -106.692422 40 7149ft 144kts
21-Dec-21 17:03 34.997982 -106.658892 35 6096ft 142kts
21-Dec-21 17:04 35.025102 -106.627132 44 5364ft 101kts
21-Dec-21 17:05 35.030212 -106.622266 319 5358ft 0kts
21-Dec-21 17:06 35.031692 -106.622455 44 5358ft 12kts
21-Dec-21 17:07 35.034292 -106.619292 44 5358ft 25kts
21-Dec-21 17:08 35.034650 -106.619973 326 5358ft 4kts
21-Dec-21 17:09 35.034889 -106.620408 237 5358ft 0kts

Navigation Log

Ident Type
Flight plan parsing failed, navigation log unavailable